Language selection

Weather shortcuts

Whitefish Bay: Past 24 Hour Conditions

 

Armstrong Airport

03:00 AM EDT 24 June 2024
Disclaimer

This table is a summary of hourly weather conditions for the past 24 hours.
Please note that these observations might not always be representative of weather conditions over their associated marine area.

Date / Time
(EDT)
Wind(knots) Conditions Visibility(km) Pressure(kPa) Air tempC) Relative humidity(%) Dew pointC) Humidex
24 June 2024
3:00 calm Clear 16 101.0 10 95 9 *
2:00 calm Clear 16 101.0 11 93 10 *
1:00 calm Clear 16 101.0 12 96 11 *
0:00 calm Clear 16 101.0 13 94 12 *
23 June 2024
23:00 calm Clear 16 101.0 15 89 13 *
22:00 calm Haze 6 100.9 18 78 14 *
21:00 NW 3 Sunny 16 100.9 22 62 14 25
20:00 WNW 8 Sunny 16 100.9 22 54 12 25
19:00 NW 6 Sunny 16 100.9 22 59 13 25
18:00 WNW 8 Mainly Sunny 16 100.9 22 61 14 25
17:00 W 10 gusts 15 Mostly Cloudy 16 100.8 22 59 13 24
16:00 W 13 Mostly Cloudy 16 100.8 23 60 15 27
15:00 W 9 gusts 19 Mainly Sunny 16 100.8 22 61 14 25
14:00 WSW 11 gusts 20 Sunny 16 100.8 23 56 13 26
13:00 SW 10 gusts 18 Cloudy 16 100.8 19 72 14 *
12:00 S 3 Cloudy 16 100.8 19 70 13 *
11:00 SW 5 Cloudy 16 100.8 17 84 14 *
10:00 calm Cloudy 16 100.7 16 84 13 *
9:00 N 2 Cloudy 16 100.7 15 89 13 *
8:00 calm Cloudy 16 100.7 13 91 11 *
7:00 calm Cloudy 16 100.7 10 95 9 *
6:00 calm Sunny 16 100.7 9 96 8 *
5:00 NW 2 Clear 16 100.7 10 93 8 *
4:00 calm Clear 16 100.7 11 93 10 *
3:00 calm Clear 16 100.8 11 94 10 *

Zoom-in to make a selection

Map of Great Lakes - Lake Superior marine weather areas Mid Superior - 45001 East Superior - 45004 West Superior - 45006 Slate Island - 45136 Lake Of the Woods - 45148 Kenora Airport Royal Island Armstrong Airport Caribou Island Marathon Airport Pukaskwa National Park Thunder Bay Airport Welcome Island Little Flatland Island Sault Ste. Marie Airport Wawa Airport
Legend:
buoy Buoy
land station Land Station

Great Lakes - Lake Superior Area

Another Region

Features

New Predicting and Alerting Coastal Flooding Program

Find out about coastal flooding coverage, forecasts and warnings in your region

Date modified: